createdAt,value
2018-05-11T00:00:27.699Z,17.10
2018-05-11T00:02:56.476Z,15.50
2018-05-11T00:05:24.106Z,15.40
2018-05-11T00:07:51.793Z,18.37
2018-05-11T00:10:19.399Z,20.70
2018-05-11T00:12:47.038Z,15.93
2018-05-11T00:15:15.677Z,12.80
2018-05-11T00:17:43.227Z,15.97
2018-05-11T00:20:11.551Z,14.53
2018-05-11T00:22:39.191Z,16.83
2018-05-11T00:25:06.790Z,17.40
2018-05-11T00:27:35.194Z,13.63
2018-05-11T00:30:03.618Z,17.57
2018-05-11T00:32:31.230Z,13.73
2018-05-11T00:34:58.781Z,17.87
2018-05-11T00:37:26.353Z,14.43
2018-05-11T00:39:53.940Z,12.80
2018-05-11T00:42:21.554Z,16.73
2018-05-11T00:44:49.155Z,16.73
2018-05-11T00:47:16.730Z,15.23
2018-05-11T00:49:44.265Z,15.40
2018-05-11T00:52:11.836Z,17.70
2018-05-11T00:54:39.494Z,16.07
2018-05-11T00:57:07.017Z,13.30
2018-05-11T00:59:34.571Z,17.10
2018-05-11T01:02:02.943Z,17.43
2018-05-11T01:04:30.522Z,17.90
2018-05-11T01:06:58.138Z,16.47
2018-05-11T01:09:25.763Z,14.80
2018-05-11T01:11:54.086Z,17.73
2018-05-11T01:14:21.705Z,18.90
2018-05-11T01:16:50.461Z,16.30
2018-05-11T01:19:18.773Z,21.30
2018-05-11T01:21:46.573Z,20.60
2018-05-11T01:24:14.161Z,19.30
2018-05-11T01:26:41.712Z,20.50
2018-05-11T01:29:10.057Z,22.03
2018-05-11T01:31:39.171Z,19.20
2018-05-11T01:34:06.756Z,19.17
2018-05-11T01:36:35.075Z,25.20
2018-05-11T01:39:02.781Z,20.57
2018-05-11T01:41:30.385Z,25.50
2018-05-11T01:43:58.753Z,18.30
2018-05-11T01:46:26.811Z,19.40
2018-05-11T01:48:54.484Z,20.20
2018-05-11T01:51:22.832Z,17.40
2018-05-11T01:53:50.381Z,18.10
2018-05-11T01:56:17.967Z,18.83
2018-05-11T01:58:45.514Z,21.17
2018-05-11T02:01:13.091Z,19.13
2018-05-11T02:03:40.639Z,22.30
2018-05-11T02:06:08.977Z,18.47
2018-05-11T02:08:37.290Z,19.93
2018-05-11T02:11:05.624Z,22.20
2018-05-11T02:13:33.985Z,21.90
2018-05-11T02:16:01.560Z,20.33
2018-05-11T02:18:29.178Z,18.93
2018-05-11T02:20:56.720Z,16.50
2018-05-11T02:23:25.097Z,19.33
2018-05-11T02:25:52.725Z,18.70
2018-05-11T02:28:20.358Z,18.63
2018-05-11T02:30:47.908Z,18.97
2018-05-11T02:33:15.504Z,18.03
2018-05-11T02:35:43.056Z,20.63
2018-05-11T02:38:10.661Z,18.43
2018-05-11T02:40:38.235Z,20.50
2018-05-11T02:43:05.824Z,21.53
2018-05-11T02:45:33.367Z,23.20
2018-05-11T02:48:01.271Z,16.03
2018-05-11T02:50:28.858Z,19.30
2018-05-11T02:52:57.016Z,20.33
2018-05-11T02:55:24.595Z,21.57
2018-05-11T02:57:52.155Z,14.63
2018-05-11T03:00:20.573Z,18.90
2018-05-11T03:02:48.188Z,18.67
2018-05-11T03:05:15.736Z,20.40
2018-05-11T03:07:43.313Z,19.30
2018-05-11T03:10:10.885Z,18.80
2018-05-11T03:12:38.473Z,18.00
2018-05-11T03:15:06.045Z,21.47
2018-05-11T03:17:33.619Z,20.57
2018-05-11T03:20:01.935Z,22.67
2018-05-11T03:22:29.542Z,18.43
2018-05-11T03:24:57.865Z,18.13
2018-05-11T03:27:26.219Z,14.93
2018-05-11T03:29:53.787Z,18.33
2018-05-11T03:32:21.325Z,20.07
2018-05-11T03:34:49.230Z,14.53
2018-05-11T03:37:16.803Z,14.10
2018-05-11T03:39:45.130Z,14.43
2018-05-11T03:42:13.566Z,22.37
2018-05-11T03:44:41.105Z,24.17
2018-05-11T03:47:08.710Z,17.13
2018-05-11T03:49:36.283Z,16.27
2018-05-11T03:52:03.864Z,15.67
2018-05-11T03:54:32.548Z,19.53
2018-05-11T03:57:00.102Z,12.93
2018-05-11T03:59:27.675Z,14.57
2018-05-11T04:02:07.985Z,13.23
2018-05-11T04:04:47.271Z,13.40
2018-05-11T04:07:26.524Z,17.10
2018-05-11T04:09:55.004Z,12.90
2018-05-11T04:12:23.341Z,12.63
2018-05-11T04:14:50.940Z,15.00
2018-05-11T04:17:19.261Z,22.13
2018-05-11T04:19:48.700Z,19.63
2018-05-11T04:22:16.271Z,14.80
2018-05-11T04:24:44.596Z,13.20
2018-05-11T04:27:12.954Z,16.43
2018-05-11T04:29:40.518Z,16.53
2018-05-11T04:32:08.846Z,15.13
2018-05-11T04:34:37.216Z,12.00
2018-05-11T04:37:05.536Z,14.33
2018-05-11T04:39:33.155Z,13.00
2018-05-11T04:42:01.489Z,12.93
2018-05-11T04:44:29.962Z,14.53
2018-05-11T04:46:59.071Z,13.33
2018-05-11T04:49:26.671Z,9.37
2018-05-11T04:51:54.266Z,15.63
2018-05-11T04:54:21.835Z,19.40
2018-05-11T04:56:49.413Z,17.90
2018-05-11T04:59:16.990Z,14.07
2018-05-11T05:01:45.320Z,14.63
2018-05-11T05:04:12.883Z,19.83
2018-05-11T05:06:41.195Z,13.77
2018-05-11T05:09:09.557Z,14.10
2018-05-11T05:11:37.123Z,13.33
2018-05-11T05:14:04.743Z,17.57
2018-05-11T05:16:32.294Z,16.20
2018-05-11T05:18:59.909Z,15.90
2018-05-11T05:21:27.494Z,15.13
2018-05-11T05:23:55.072Z,13.50
2018-05-11T05:26:22.657Z,18.40
2018-05-11T05:28:50.291Z,15.70
2018-05-11T05:31:18.619Z,23.73
2018-05-11T05:33:46.975Z,21.30
2018-05-11T05:36:15.331Z,16.63
2018-05-11T05:38:42.883Z,17.30
2018-05-11T05:41:10.470Z,10.33
2018-05-11T05:43:38.940Z,15.10
2018-05-11T05:46:07.281Z,11.77
2018-05-11T05:48:35.639Z,16.73
2018-05-11T05:51:03.243Z,18.27
2018-05-11T05:53:30.792Z,13.13
2018-05-11T05:55:58.765Z,16.43
2018-05-11T05:58:27.137Z,9.50
2018-05-11T06:00:54.663Z,19.47
2018-05-11T06:03:23.384Z,13.50
2018-05-11T06:05:50.942Z,12.87
2018-05-11T06:08:18.575Z,16.53
2018-05-11T06:10:46.239Z,26.20
2018-05-11T06:13:13.852Z,15.73
2018-05-11T06:15:41.619Z,15.63
2018-05-11T06:18:09.260Z,16.30
2018-05-11T06:20:37.565Z,13.30
2018-05-11T06:23:05.172Z,21.33
2018-05-11T06:25:34.061Z,23.20
2018-05-11T06:28:01.605Z,17.83
2018-05-11T06:30:29.199Z,16.47
2018-05-11T06:32:57.551Z,19.93
2018-05-11T06:35:25.109Z,19.03
2018-05-11T06:37:52.717Z,20.40
2018-05-11T06:40:20.257Z,19.70
2018-05-11T06:42:47.796Z,25.80
2018-05-11T06:45:15.406Z,20.10
2018-05-11T06:47:42.957Z,20.00
2018-05-11T06:50:10.919Z,23.33
2018-05-11T06:52:39.327Z,30.30
2018-05-11T06:55:06.920Z,29.03
2018-05-11T06:57:35.168Z,27.70
2018-05-11T07:00:03.572Z,29.93
2018-05-11T07:02:31.109Z,22.37
2018-05-11T07:04:58.711Z,24.60
2018-05-11T07:07:26.319Z,28.83
2018-05-11T07:09:53.947Z,33.80
2018-05-11T07:12:21.527Z,22.33
2018-05-11T07:14:49.150Z,29.03
2018-05-11T07:17:16.890Z,24.90
2018-05-11T07:19:44.518Z,25.30
2018-05-11T07:22:12.092Z,29.60
2018-05-11T07:24:39.649Z,23.20
2018-05-11T07:27:07.240Z,23.77
2018-05-11T07:29:36.546Z,28.37
2018-05-11T07:32:05.856Z,29.03
2018-05-11T07:34:33.474Z,39.30
2018-05-11T07:37:01.860Z,27.47
2018-05-11T07:39:29.468Z,32.20
2018-05-11T07:41:57.146Z,28.43
2018-05-11T07:44:24.731Z,30.90
2018-05-11T07:46:52.295Z,28.47
2018-05-11T07:49:20.855Z,29.00
2018-05-11T07:51:48.399Z,38.20
2018-05-11T07:54:16.017Z,26.17
2018-05-11T07:56:44.338Z,30.77
2018-05-11T07:59:12.855Z,28.40
2018-05-11T08:01:41.168Z,29.00
2018-05-11T08:04:09.967Z,22.50
2018-05-11T08:06:37.648Z,28.27
2018-05-11T08:09:06.407Z,30.23
2018-05-11T08:11:34.303Z,32.20
2018-05-11T08:14:02.685Z,28.60
2018-05-11T08:16:30.268Z,32.07
2018-05-11T08:18:57.900Z,29.07
2018-05-11T08:21:25.491Z,26.40
2018-05-11T08:23:54.037Z,25.83
2018-05-11T08:26:22.386Z,27.63
2018-05-11T08:28:49.972Z,21.40
2018-05-11T08:31:18.638Z,24.47
2018-05-11T08:33:46.182Z,23.63
2018-05-11T08:36:13.892Z,21.53
2018-05-11T08:38:42.239Z,24.13
2018-05-11T08:41:09.818Z,18.97
2018-05-11T08:43:37.366Z,26.43
2018-05-11T08:46:05.814Z,22.10
2018-05-11T08:48:33.389Z,22.70
2018-05-11T08:51:01.013Z,25.47
2018-05-11T08:53:29.377Z,23.23
2018-05-11T08:55:57.133Z,20.00
2018-05-11T08:58:24.805Z,27.50
2018-05-11T09:00:53.161Z,25.10
2018-05-11T09:03:20.757Z,24.00
2018-05-11T09:05:48.427Z,23.83
2018-05-11T09:08:16.102Z,26.17
2018-05-11T09:10:44.524Z,21.77
2018-05-11T09:13:12.143Z,25.30
2018-05-11T09:15:40.649Z,26.10
2018-05-11T09:18:08.503Z,27.47
2018-05-11T09:20:36.907Z,27.37
2018-05-11T09:23:05.389Z,28.83
2018-05-11T09:25:33.013Z,22.50
2018-05-11T09:28:00.605Z,22.50
2018-05-11T09:30:28.178Z,29.50
2018-05-11T09:32:55.826Z,24.50
2018-05-11T09:35:23.563Z,28.50
2018-05-11T09:37:51.422Z,24.20
2018-05-11T09:40:19.202Z,26.00
2018-05-11T09:42:47.745Z,22.90
2018-05-11T09:45:15.571Z,20.83
2018-05-11T09:47:43.262Z,23.27
2018-05-11T09:50:13.238Z,19.97
2018-05-11T09:52:42.339Z,21.00
2018-05-11T09:55:10.097Z,19.80
2018-05-11T09:57:37.625Z,19.10
2018-05-11T10:00:05.202Z,20.83
2018-05-11T10:02:32.796Z,19.10
2018-05-11T10:05:02.116Z,25.00
2018-05-11T10:07:29.711Z,19.30
2018-05-11T10:09:57.297Z,23.83
2018-05-11T10:12:24.960Z,25.77
2018-05-11T10:14:53.960Z,23.97
2018-05-11T10:17:22.413Z,24.53
2018-05-11T10:19:50.093Z,21.30
2018-05-11T10:22:17.727Z,24.80
2018-05-11T10:24:46.078Z,23.43
2018-05-11T10:27:13.721Z,19.40
2018-05-11T10:29:42.294Z,20.13
2018-05-11T10:32:10.618Z,18.30
2018-05-11T10:34:41.939Z,20.40
2018-05-11T10:46:20.700Z,20.03
2018-05-11T10:48:48.392Z,34.27
2018-05-11T10:51:15.956Z,21.83
2018-05-11T10:53:43.513Z,18.90
2018-05-11T10:56:11.068Z,22.30
2018-05-11T10:58:38.659Z,18.73
2018-05-11T11:01:06.328Z,21.27
2018-05-11T11:03:34.800Z,19.40
2018-05-11T11:06:06.427Z,24.10
2018-05-11T11:08:33.970Z,21.87
2018-05-11T11:11:02.322Z,22.83
2018-05-11T11:13:30.672Z,19.70
2018-05-11T11:16:04.300Z,21.53
2018-05-11T11:18:33.897Z,22.50
2018-05-11T11:21:01.467Z,23.83
2018-05-11T11:23:29.865Z,21.10
2018-05-11T11:25:57.542Z,24.63
2018-05-11T11:28:29.178Z,28.33
2018-05-11T11:30:56.782Z,26.10
2018-05-11T11:36:17.908Z,25.10
2018-05-11T11:38:54.638Z,27.50
2018-05-11T11:41:28.050Z,26.20
2018-05-11T11:50:05.569Z,28.87
2018-05-11T11:52:35.344Z,26.93
2018-05-11T11:55:05.077Z,24.47
2018-05-11T11:57:38.632Z,25.40
2018-05-11T12:00:07.492Z,29.37
2018-05-11T12:02:36.322Z,23.50
2018-05-11T12:05:04.343Z,27.50
2018-05-11T12:07:32.235Z,28.03
2018-05-11T12:10:00.078Z,26.90
2018-05-11T12:15:43.543Z,29.07
2018-05-11T12:18:15.367Z,25.47
2018-05-11T12:20:47.072Z,26.70
2018-05-11T12:23:16.782Z,28.67
2018-05-11T12:28:41.527Z,27.67
2018-05-11T12:45:49.106Z,26.03
2018-05-11T12:48:17.944Z,25.87
2018-05-11T14:07:51.139Z,23.50
2018-05-11T14:10:18.805Z,27.20
2018-05-11T14:12:46.270Z,21.90
2018-05-11T14:15:15.570Z,21.87
2018-05-11T14:17:43.242Z,21.47
2018-05-11T14:20:11.858Z,20.73
2018-05-11T14:22:39.482Z,23.93
2018-05-11T14:25:07.121Z,21.70
2018-05-11T14:27:34.716Z,24.60
2018-05-11T14:30:03.420Z,17.90
2018-05-11T14:32:31.984Z,23.67
2018-05-11T14:34:59.515Z,20.67
2018-05-11T14:40:20.886Z,20.37
2018-05-11T14:42:48.427Z,16.33
2018-05-11T14:45:18.096Z,15.50
2018-05-11T14:47:46.648Z,18.03
2018-05-11T14:50:14.189Z,20.40
2018-05-11T14:52:41.746Z,18.40
2018-05-11T14:55:15.019Z,20.10
2018-05-11T14:57:42.652Z,22.13
2018-05-11T15:00:11.734Z,20.00
2018-05-11T15:02:39.365Z,22.00
2018-05-11T15:05:27.006Z,17.17
2018-05-11T15:07:56.574Z,14.67
2018-05-11T15:10:28.341Z,16.10
2018-05-11T15:12:55.917Z,16.30
2018-05-11T15:15:23.523Z,17.73
2018-05-11T15:17:51.222Z,17.33
2018-05-11T15:20:18.777Z,17.10
2018-05-11T15:22:46.397Z,16.10
2018-05-11T15:25:14.949Z,16.57
2018-05-11T15:27:44.509Z,15.20
2018-05-11T15:30:14.094Z,17.13
2018-05-11T15:32:41.677Z,15.37
2018-05-11T15:35:09.335Z,15.43
2018-05-11T15:37:36.905Z,15.07
2018-05-11T15:40:08.659Z,15.27
2018-05-11T15:42:37.155Z,18.17
2018-05-11T15:45:07.713Z,14.50
2018-05-11T15:47:35.287Z,17.60
2018-05-11T15:50:03.906Z,14.30
2018-05-11T15:52:37.481Z,16.63
2018-05-11T15:55:06.011Z,18.53
2018-05-11T15:57:33.624Z,15.30
2018-05-11T16:00:06.326Z,13.83
2018-05-11T16:02:34.971Z,17.00
2018-05-11T16:05:03.357Z,16.30
2018-05-11T16:07:31.913Z,15.53
2018-05-11T16:09:59.490Z,20.43
2018-05-11T16:12:28.831Z,19.83
2018-05-11T16:14:58.389Z,13.97
2018-05-11T16:17:27.924Z,15.20
2018-05-11T16:19:58.500Z,14.87
2018-05-11T16:22:26.130Z,16.23
2018-05-11T16:24:54.581Z,16.97
2018-05-11T16:27:24.918Z,14.17
2018-05-11T16:29:53.513Z,15.80
2018-05-11T16:32:24.930Z,16.33
2018-05-11T16:34:56.290Z,16.07
2018-05-11T16:37:25.627Z,16.00
2018-05-11T16:39:53.185Z,15.07
2018-05-11T16:42:27.684Z,16.17
2018-05-11T16:44:58.002Z,15.37
2018-05-11T16:47:26.377Z,15.30
2018-05-11T16:49:55.655Z,14.57
2018-05-11T16:52:26.303Z,19.30
2018-05-11T16:54:55.578Z,18.10
2018-05-11T16:57:24.890Z,20.77
2018-05-11T16:59:53.393Z,15.80
2018-05-11T17:02:22.756Z,14.50
2018-05-11T17:04:50.339Z,18.17
2018-05-11T17:07:17.917Z,16.97
2018-05-11T17:09:47.246Z,16.73
2018-05-11T17:12:15.785Z,16.20
2018-05-11T17:14:45.305Z,21.43
2018-05-11T17:17:14.612Z,17.57
2018-05-11T17:19:43.948Z,15.97
2018-05-11T17:22:13.512Z,18.03
2018-05-11T17:24:41.237Z,15.70
2018-05-11T17:27:10.756Z,14.40
2018-05-11T17:29:38.421Z,16.40
2018-05-11T17:32:06.043Z,18.80
2018-05-11T17:34:37.185Z,13.20
2018-05-11T17:37:04.743Z,16.03
2018-05-11T17:39:36.403Z,15.93
2018-05-11T17:42:05.688Z,15.67
2018-05-11T17:44:35.170Z,16.50
2018-05-11T17:47:03.653Z,13.30
2018-05-11T17:49:31.224Z,15.40
2018-05-11T17:51:59.668Z,17.07
2018-05-11T17:54:27.210Z,16.80
2018-05-11T17:56:54.861Z,15.70
2018-05-11T17:59:22.410Z,14.83
2018-05-11T18:01:50.054Z,16.17
2018-05-11T18:04:18.586Z,16.50
2018-05-11T18:06:48.246Z,16.40
2018-05-11T18:09:15.864Z,17.90
2018-05-11T18:11:43.487Z,15.07
2018-05-11T18:14:11.029Z,14.00
2018-05-11T18:16:40.392Z,12.83
2018-05-11T18:19:08.009Z,16.37
2018-05-11T18:21:35.589Z,13.57
2018-05-11T18:24:04.141Z,15.30
2018-05-11T18:26:36.745Z,15.40
2018-05-11T18:29:06.452Z,12.60
2018-05-11T18:31:34.986Z,13.87
2018-05-11T18:34:02.548Z,13.83
2018-05-11T18:36:31.621Z,14.50
2018-05-11T18:38:59.329Z,23.07
2018-05-11T18:41:28.714Z,16.90
2018-05-11T18:43:56.375Z,15.13
2018-05-11T18:46:24.765Z,14.63
2018-05-11T18:48:57.037Z,15.40
2018-05-11T18:51:26.330Z,16.33
2018-05-11T18:53:58.921Z,15.77
2018-05-11T18:56:26.104Z,21.47
2018-05-11T18:58:55.806Z,18.30
2018-05-11T19:01:23.430Z,18.30
2018-05-11T19:03:51.813Z,16.63
2018-05-11T19:06:26.020Z,19.63
2018-05-11T19:08:58.857Z,19.33
2018-05-11T19:11:26.877Z,17.50
2018-05-11T19:13:58.365Z,17.47
2018-05-11T19:16:25.931Z,16.40
2018-05-11T19:18:53.509Z,20.30
2018-05-11T19:21:22.320Z,18.00
2018-05-11T19:23:52.081Z,17.00
2018-05-11T19:26:20.828Z,18.97
2018-05-11T19:28:49.462Z,19.90
2018-05-11T19:31:20.999Z,24.30
2018-05-11T19:33:51.688Z,22.03
2018-05-11T19:36:19.270Z,19.33
2018-05-11T19:38:47.788Z,17.97
2018-05-11T19:41:19.284Z,18.70
2018-05-11T19:43:46.819Z,16.73
2018-05-11T19:46:15.438Z,23.67
2018-05-11T19:48:43.928Z,23.97
2018-05-11T19:51:11.523Z,24.60
2018-05-11T19:53:40.131Z,31.13
2018-05-11T19:56:07.853Z,22.10
2018-05-11T19:58:35.427Z,21.80
2018-05-11T20:01:02.986Z,23.30
2018-05-11T20:03:31.701Z,18.90
2018-05-11T20:06:00.183Z,19.03
2018-05-11T20:08:27.740Z,22.57
2018-05-11T20:10:56.117Z,19.77
2018-05-11T20:13:23.653Z,22.40
2018-05-11T20:15:51.959Z,26.80
2018-05-11T20:18:20.619Z,21.93
2018-05-11T20:20:49.180Z,26.80
2018-05-11T20:23:24.673Z,23.03
2018-05-11T20:25:53.212Z,23.97
2018-05-11T20:28:20.764Z,23.10
2018-05-11T20:30:49.402Z,22.47
2018-05-11T20:33:17.032Z,21.63
2018-05-11T20:35:46.309Z,25.03
2018-05-11T20:38:15.145Z,21.60
2018-05-11T20:40:44.749Z,27.27
2018-05-11T20:43:12.672Z,24.60
2018-05-11T20:45:40.265Z,26.20
2018-05-11T20:48:07.963Z,23.10
2018-05-11T20:50:36.329Z,22.33
2018-05-11T20:53:04.953Z,22.73
2018-05-11T20:55:32.648Z,23.23
2018-05-11T20:58:01.896Z,28.33
2018-05-11T21:00:29.478Z,23.47
2018-05-11T21:02:57.018Z,24.07
2018-05-11T21:05:24.909Z,22.73
2018-05-11T21:07:54.230Z,19.33
2018-05-11T21:10:21.837Z,25.90
2018-05-11T21:12:49.715Z,25.50
2018-05-11T21:15:17.281Z,28.23
2018-05-11T21:17:44.826Z,28.67
2018-05-11T21:20:12.449Z,25.13
2018-05-11T21:22:40.062Z,25.77
2018-05-11T21:25:07.695Z,25.53
2018-05-11T21:27:36.029Z,26.80
2018-05-11T21:30:03.689Z,29.87
2018-05-11T21:32:31.249Z,25.97
2018-05-11T21:34:59.792Z,27.30
2018-05-11T21:37:27.685Z,26.40
2018-05-11T21:39:55.304Z,25.70
2018-05-11T21:42:22.896Z,24.93
2018-05-11T21:44:50.519Z,28.57
2018-05-11T21:47:18.201Z,27.17
2018-05-11T21:49:46.803Z,27.67
2018-05-11T21:52:14.461Z,29.20
2018-05-11T21:54:42.106Z,38.50
2018-05-11T21:57:09.692Z,30.27
2018-05-11T21:59:37.288Z,27.77
2018-05-11T22:02:05.018Z,26.40
2018-05-11T22:04:33.588Z,30.50
2018-05-11T22:07:01.235Z,27.27
2018-05-11T22:09:28.816Z,31.70
2018-05-11T22:11:56.443Z,29.67
2018-05-11T22:14:24.144Z,33.53
2018-05-11T22:16:52.221Z,27.23
2018-05-11T22:19:19.945Z,27.80
2018-05-11T22:21:48.441Z,36.17
2018-05-11T22:24:16.031Z,31.60
2018-05-11T22:26:45.615Z,27.07
2018-05-11T22:29:13.335Z,30.63
2018-05-11T22:31:40.966Z,34.27
2018-05-11T22:34:08.629Z,31.30
2018-05-11T22:36:36.257Z,36.80
2018-05-11T22:39:03.933Z,33.53
2018-05-11T22:41:32.645Z,37.00
2018-05-11T22:44:00.283Z,37.63
2018-05-11T22:46:27.879Z,40.03
2018-05-11T22:48:56.504Z,36.03
2018-05-11T22:51:24.069Z,36.83
2018-05-11T22:53:51.725Z,36.00
2018-05-11T22:56:19.427Z,36.53
2018-05-11T22:58:55.849Z,32.70
2018-05-11T23:01:25.176Z,37.40
2018-05-11T23:03:52.989Z,39.53
2018-05-11T23:06:21.593Z,40.90
2018-05-11T23:08:49.274Z,40.70
2018-05-11T23:11:18.455Z,39.67
2018-05-11T23:13:48.449Z,38.07
2018-05-11T23:16:17.450Z,38.77
2018-05-11T23:18:45.539Z,41.67
2018-05-11T23:21:14.261Z,43.77
2018-05-11T23:23:44.395Z,45.67
2018-05-11T23:26:12.458Z,43.97
2018-05-11T23:28:41.228Z,45.53
2018-05-11T23:31:09.923Z,46.80
2018-05-11T23:33:38.933Z,40.47
2018-05-11T23:36:09.879Z,43.67
2018-05-11T23:38:42.767Z,43.10
2018-05-11T23:41:24.769Z,42.07
2018-05-11T23:43:56.909Z,44.73
2018-05-11T23:46:26.636Z,45.03
2018-05-11T23:49:00.186Z,51.77
2018-05-11T23:51:38.123Z,49.83
2018-05-11T23:54:29.487Z,50.33
2018-05-11T23:57:01.779Z,44.80
2018-05-11T23:59:30.850Z,49.20
